Time;durP1;ratioP1;P1;durP2;ratioP2;P2;SDS_P1;SDS_P2;PMS_P1;PMS_P2;Temp;Humidity;BMP_temperature;BMP_pressure;BME280_temperature;BME280_humidity;BME280_pressure;Samples;Min_cycle;Max_cycle;Signal;HPM_P1;HPM_P2
2022/04/26 03:36:41;;;;;;;14.67;8.90;;;;;;;-145.69;100.00;71752.63;5072692;28;20193;-75
2022/04/26 03:39:08;;;;;;;15.67;9.13;;;;;;;-145.69;100.00;71770.53;5072568;28;20203;-75
2022/04/26 03:41:35;;;;;;;16.63;9.20;;;;;;;-145.69;100.00;71768.53;5072799;28;20627;-75
2022/04/26 03:44:07;;;;;;;17.83;9.93;;;;;;;-145.69;100.00;71766.56;5072830;28;20661;-75
2022/04/26 03:46:33;;;;;;;19.73;9.70;;;;;;;-145.69;100.00;71778.50;5072932;28;20203;-75
2022/04/26 03:49:01;;;;;;;18.07;9.67;;;;;;;-145.69;100.00;71778.50;5072341;28;20230;-75
2022/04/26 03:51:27;;;;;;;19.70;10.67;;;;;;;-145.69;100.00;71782.47;5072846;28;20203;-75
2022/04/26 03:53:56;;;;;;;22.17;11.23;;;;;;;-145.69;100.00;71784.47;5072857;28;20206;-75
2022/04/26 03:56:25;;;;;;;22.00;11.67;;;;;;;-145.69;100.00;71778.50;5072501;28;20207;-75
2022/04/26 03:58:52;;;;;;;20.20;11.27;;;;;;;-145.69;100.00;71784.47;5072433;28;20202;-75
2022/04/26 04:01:20;;;;;;;21.00;11.33;;;;;;;-145.69;100.00;71782.47;5072603;28;20194;-75
2022/04/26 04:03:46;;;;;;;23.57;11.23;;;;;;;-145.69;100.00;71788.44;5072558;28;20623;-74
2022/04/26 04:06:14;;;;;;;20.23;10.17;;;;;;;-145.69;100.00;71788.44;5072492;28;20202;-75
2022/04/26 04:08:41;;;;;;;21.30;10.93;;;;;;;-145.69;100.00;71788.44;5072379;28;20231;-75
2022/04/26 04:11:09;;;;;;;20.80;10.77;;;;;;;-145.69;100.00;71792.44;5069688;28;20203;-75
2022/04/26 04:13:36;;;;;;;20.87;10.77;;;;;;;-145.69;100.00;71788.44;5072179;28;20204;-75
2022/04/26 04:16:04;;;;;;;21.30;11.43;;;;;;;-145.69;100.00;71792.44;5072203;28;20206;-75
2022/04/26 04:21:18;;;;;;;19.33;10.57;;;;;;;-145.69;100.00;71800.38;5072517;28;20201;-75
2022/04/26 04:23:44;;;;;;;22.07;10.47;;;;;;;-145.69;100.00;71798.41;5071935;28;20221;-74
2022/04/26 04:26:11;;;;;;;21.37;11.10;;;;;;;-145.69;100.00;71804.38;5072255;28;20202;-74
2022/04/26 04:28:38;;;;;;;23.33;11.87;;;;;;;-145.69;100.00;71808.34;5072198;28;20223;-75
2022/04/26 04:31:05;;;;;;;21.13;11.47;;;;;;;-145.69;100.00;71808.34;5071362;28;20203;-74
2022/04/26 04:33:32;;;;;;;25.87;11.60;;;;;;;-145.69;100.00;71804.38;5072315;28;20203;-74
2022/04/26 04:36:00;;;;;;;22.20;11.37;;;;;;;-145.69;100.00;71814.31;5072196;28;20206;-74
2022/04/26 04:38:27;;;;;;;23.30;11.30;;;;;;;-145.69;100.00;71812.31;5072277;28;20211;-74
2022/04/26 04:40:56;;;;;;;20.73;10.80;;;;;;;-145.69;100.00;71816.31;5074021;28;20252;-75
2022/04/26 04:43:29;;;;;;;18.47;10.03;;;;;;;-145.69;100.00;71822.28;5076062;28;20218;-74
2022/04/26 04:45:56;;;;;;;19.83;11.17;;;;;;;-145.69;100.00;71816.31;5076159;28;20194;-74
2022/04/26 04:48:29;;;;;;;19.60;10.93;;;;;;;-145.69;100.00;71818.31;5075879;28;20221;-75
2022/04/26 04:50:55;;;;;;;18.40;10.80;;;;;;;-145.69;100.00;71822.28;5075603;28;20199;-74
2022/04/26 04:53:22;;;;;;;19.53;10.83;;;;;;;-145.69;100.00;71812.31;5075615;28;20205;-74
2022/04/26 04:55:54;;;;;;;21.20;10.77;;;;;;;-145.69;100.00;71814.31;5075528;28;20203;-74
2022/04/26 04:58:20;;;;;;;21.23;10.60;;;;;;;-145.69;100.00;71816.31;5075857;28;20195;-74
2022/04/26 05:00:47;;;;;;;18.60;11.17;;;;;;;-145.69;100.00;71806.34;5075805;28;20237;-75
2022/04/26 05:03:13;;;;;;;18.40;10.07;;;;;;;-145.69;100.00;71792.44;5075376;28;20205;-75
2022/04/26 05:05:39;;;;;;;19.40;10.93;;;;;;;-145.69;100.00;71800.38;5075375;28;20202;-74
2022/04/26 05:08:09;;;;;;;17.47;10.00;;;;;;;-145.69;100.00;71798.41;5075053;28;20210;-74
2022/04/26 05:10:39;;;;;;;14.83;9.23;;;;;;;-145.69;100.00;71788.44;5075117;28;20230;-75
2022/04/26 05:13:10;;;;;;;18.80;9.57;;;;;;;-145.69;100.00;71786.47;5075593;28;20207;-74
2022/04/26 05:15:44;;;;;;;16.40;9.60;;;;;;;-145.69;100.00;71794.41;5075486;28;20256;-75
2022/04/26 05:18:14;;;;;;;17.47;10.87;;;;;;;-145.69;100.00;71800.38;5074041;28;20501;-74
2022/04/26 05:20:44;;;;;;;16.57;9.90;;;;;;;-145.69;100.00;71806.34;5075138;28;20592;-75
2022/04/26 05:25:56;;;;;;;17.00;9.87;;;;;;;-145.69;100.00;71808.34;5075241;28;20578;-74
2022/04/26 05:28:24;;;;;;;19.93;12.40;;;;;;;-145.69;100.00;71808.34;5074340;28;20438;-74
2022/04/26 05:30:54;;;;;;;18.60;10.43;;;;;;;-145.69;100.00;71802.38;5074713;28;20535;-75
2022/04/26 05:33:21;;;;;;;20.27;11.20;;;;;;;-145.69;100.00;71796.41;5075101;28;20657;-75
2022/04/26 05:35:48;;;;;;;17.60;9.63;;;;;;;-145.69;100.00;71786.47;5074688;28;20278;-75
2022/04/26 05:38:15;;;;;;;15.77;8.67;;;;;;;-145.69;100.00;71782.47;5074516;28;20666;-75
2022/04/26 05:40:45;;;;;;;17.20;9.53;;;;;;;-145.69;100.00;71776.50;5075144;28;20206;-75
2022/04/26 05:43:14;;;;;;;15.40;9.17;;;;;;;-145.69;100.00;71768.53;5074843;28;20203;-75
2022/04/26 05:45:41;;;;;;;17.33;8.90;;;;;;;-145.69;100.00;71754.63;5074637;28;20562;-75
2022/04/26 05:48:09;;;;;;;18.23;8.83;;;;;;;-145.69;100.00;71746.66;5074934;28;20206;-75
2022/04/26 05:50:38;;;;;;;11.57;7.10;;;;;;;-145.69;100.00;71748.66;5074531;28;20696;-75
2022/04/26 05:53:07;;;;;;;11.70;6.93;;;;;;;-145.69;100.00;71746.66;5073119;28;20203;-74
2022/04/26 05:55:40;;;;;;;14.10;8.17;;;;;;;-145.69;100.00;71746.66;5074636;28;20207;-75
2022/04/26 05:58:07;;;;;;;13.83;7.87;;;;;;;-145.69;100.00;71774.50;5074536;28;20228;-75
2022/04/26 06:00:36;;;;;;;13.20;8.10;;;;;;;-145.69;100.00;71796.41;5074828;28;20203;-75
2022/04/26 06:03:04;;;;;;;17.50;8.70;;;;;;;-145.69;100.00;71790.44;5074017;28;20199;-75
2022/04/26 06:05:34;;;;;;;15.20;8.23;;;;;;;-145.69;100.00;71784.47;5074091;28;20248;-75
2022/04/26 06:08:00;;;;;;;18.23;9.23;;;;;;;-145.69;100.00;71782.47;5063383;28;20202;-75
2022/04/26 06:10:28;;;;;;;15.67;8.53;;;;;;;-145.69;100.00;71776.50;5054397;28;20231;-75
2022/04/26 06:12:56;;;;;;;14.30;8.40;;;;;;;-145.69;100.00;71770.53;5053807;28;20625;-75
2022/04/26 06:15:24;;;;;;;15.23;8.90;;;;;;;-145.69;100.00;71786.47;5054477;28;20609;-74
2022/04/26 06:17:51;;;;;;;17.13;8.83;;;;;;;-145.69;100.00;71780.50;5054047;28;20231;-74
2022/04/26 06:20:24;;;;;;;14.23;8.10;;;;;;;-145.69;100.00;71772.53;5054266;28;20207;-75
2022/04/26 06:22:53;;;;;;;15.53;8.37;;;;;;;-145.69;100.00;71800.38;5066211;28;20199;-75
2022/04/26 06:25:20;;;;;;;13.50;6.90;;;;;;;-145.69;100.00;71812.31;5073881;28;20203;-74
2022/04/26 06:27:47;;;;;;;14.37;7.67;;;;;;;-145.69;100.00;71812.31;5073795;28;20217;-75
2022/04/26 06:30:15;;;;;;;13.80;7.17;;;;;;;-145.69;100.00;71814.31;5073675;28;20287;-75
2022/04/26 06:32:43;;;;;;;11.23;6.70;;;;;;;-145.69;100.00;71812.31;5073911;28;20199;-75
2022/04/26 06:35:09;;;;;;;15.50;8.07;;;;;;;-145.69;100.00;71804.38;5073841;28;20211;-75
2022/04/26 06:37:37;;;;;;;14.27;7.90;;;;;;;-145.69;100.00;71794.41;5073781;28;20202;-75
2022/04/26 06:40:05;;;;;;;14.60;7.83;;;;;;;-145.69;100.00;71792.44;5073556;28;20605;-75
2022/04/26 06:42:31;;;;;;;16.83;7.83;;;;;;;-145.69;100.00;71798.41;5073900;28;20319;-75
2022/04/26 06:44:58;;;;;;;13.97;7.87;;;;;;;-145.69;100.00;71788.44;5073711;28;20199;-75
2022/04/26 06:47:24;;;;;;;13.20;7.80;;;;;;;-145.69;100.00;71768.53;5073596;28;20202;-75
2022/04/26 06:49:51;;;;;;;13.47;7.60;;;;;;;-145.69;100.00;71736.72;5073485;28;20234;-75
2022/04/26 06:52:18;;;;;;;15.23;8.27;;;;;;;-145.69;100.00;71724.75;5073037;28;20277;-75
2022/04/26 06:54:46;;;;;;;14.97;8.20;;;;;;;-145.69;100.00;71714.81;5073186;28;20202;-75
2022/04/26 06:57:12;;;;;;;15.97;7.47;;;;;;;-145.69;100.00;71696.91;5073415;28;20238;-75
2022/04/26 06:59:40;;;;;;;11.40;6.63;;;;;;;-145.69;100.00;71684.97;5073217;28;20220;-75
2022/04/26 07:02:09;;;;;;;12.60;7.33;;;;;;;-145.69;100.00;71645.16;5072137;28;20240;-76
2022/04/26 07:04:35;;;;;;;11.07;7.17;;;;;;;-145.69;100.00;71619.28;5072998;28;20195;-75
2022/04/26 07:07:02;;;;;;;11.90;6.67;;;;;;;-145.69;100.00;71599.41;5072261;28;20206;-76
2022/04/26 07:09:28;;;;;;;9.30;6.00;;;;;;;-145.69;100.00;71581.50;5073511;28;20225;-76
2022/04/26 07:11:57;;;;;;;12.00;6.00;;;;;;;-145.69;100.00;71565.56;5073487;28;20202;-76
2022/04/26 07:14:23;;;;;;;11.23;5.67;;;;;;;-145.69;100.00;71569.53;5073614;28;20209;-76
2022/04/26 07:16:50;;;;;;;9.03;5.57;;;;;;;-145.69;100.00;71585.47;5073275;28;20262;-76
2022/04/26 07:19:18;;;;;;;8.73;5.87;;;;;;;-145.69;100.00;71567.56;5073471;28;20214;-77
2022/04/26 07:21:46;;;;;;;9.47;5.43;;;;;;;-145.69;100.00;71557.59;5073433;28;20199;-76
2022/04/26 07:24:13;;;;;;;9.40;5.50;;;;;;;-145.69;100.00;71547.66;5073207;28;20210;-76
2022/04/26 07:26:42;;;;;;;7.63;4.60;;;;;;;-145.69;100.00;71553.63;5073139;28;20210;-75
2022/04/26 07:29:10;;;;;;;7.90;5.70;;;;;;;-145.69;100.00;71607.34;5072716;28;20209;-75
2022/04/26 07:31:37;;;;;;;9.70;5.43;;;;;;;-145.69;100.00;71573.53;5073112;28;20264;-75
2022/04/26 07:34:21;;;;;;;8.67;5.77;;;;;;;-145.69;100.00;71613.31;5072522;28;20233;-75
2022/04/26 07:36:48;;;;;;;10.97;5.80;;;;;;;-145.69;100.00;71637.19;5073154;28;20195;-75
2022/04/26 07:39:17;;;;;;;10.23;6.30;;;;;;;-145.69;100.00;71649.16;5072816;28;20210;-75
2022/04/26 07:41:44;;;;;;;12.50;7.03;;;;;;;-145.69;100.00;71702.88;5070074;28;20563;-75
2022/04/26 07:44:12;;;;;;;10.27;6.20;;;;;;;-145.69;100.00;71710.84;5064098;28;20204;-74
2022/04/26 07:46:39;;;;;;;11.60;6.80;;;;;;;-145.69;100.00;71686.97;5072589;28;20577;-76
2022/04/26 07:49:06;;;;;;;8.63;6.40;;;;;;;-145.69;100.00;71698.91;5072253;28;20202;-75
2022/04/26 07:51:32;;;;;;;12.37;6.77;;;;;;;-145.69;100.00;71688.94;5069129;28;20191;-76
2022/04/26 07:53:59;;;;;;;10.83;6.50;;;;;;;-145.69;100.00;71692.94;5070273;28;20194;-75
2022/04/26 07:56:27;;;;;;;12.53;6.93;;;;;;;-145.69;100.00;71688.94;5071903;28;20195;-74
2022/04/26 07:58:54;;;;;;;11.23;6.40;;;;;;;-145.69;100.00;71688.94;5072356;28;20282;-76
2022/04/26 08:01:22;;;;;;;11.67;6.50;;;;;;;-145.69;100.00;71700.88;5072678;28;20198;-75
2022/04/26 08:03:48;;;;;;;14.73;6.53;;;;;;;-145.69;100.00;71688.94;5072702;28;20205;-75
2022/04/26 08:06:15;;;;;;;13.00;6.80;;;;;;;-145.69;100.00;71657.09;5071846;28;20531;-75
2022/04/26 08:08:41;;;;;;;10.47;5.87;;;;;;;-145.69;100.00;71657.09;5072251;28;20187;-75
2022/04/26 08:11:11;;;;;;;11.97;5.90;;;;;;;-145.69;100.00;71647.16;5065002;28;20289;-75
2022/04/26 08:13:38;;;;;;;9.47;5.60;;;;;;;-145.69;100.00;71637.19;5065273;28;20199;-75
2022/04/26 08:16:05;;;;;;;12.23;6.27;;;;;;;-145.69;100.00;71637.19;5073994;28;20199;-75
2022/04/26 08:18:33;;;;;;;10.97;6.17;;;;;;;-145.69;100.00;71629.25;5076128;28;20296;-75
2022/04/26 08:20:59;;;;;;;9.67;5.97;;;;;;;-145.69;100.00;71635.22;5076139;28;20516;-75
2022/04/26 08:23:26;;;;;;;9.57;5.33;;;;;;;-145.69;100.00;71655.13;5075867;28;20700;-75
2022/04/26 08:28:37;;;;;;;10.77;6.07;;;;;;;-145.69;100.00;71684.97;5076007;28;20205;-75
2022/04/26 08:31:05;;;;;;;8.77;5.33;;;;;;;-145.69;100.00;71677.00;5075712;28;20230;-75
2022/04/26 08:33:35;;;;;;;10.27;5.80;;;;;;;-145.69;100.00;71702.88;5076067;28;20195;-76
2022/04/26 08:36:03;;;;;;;9.70;5.67;;;;;;;-145.69;100.00;71692.94;5075593;28;20187;-74
2022/04/26 08:38:29;;;;;;;7.83;5.43;;;;;;;-145.69;100.00;71714.81;5075088;28;20238;-74
2022/04/26 08:40:56;;;;;;;9.67;6.03;;;;;;;-145.69;100.00;71732.72;5075642;28;20206;-74
2022/04/26 08:43:22;;;;;;;10.77;6.03;;;;;;;-145.69;100.00;71700.88;5075910;28;20195;-74
2022/04/26 08:45:49;;;;;;;9.57;5.23;;;;;;;-145.69;100.00;71677.00;5075559;28;20195;-74
2022/04/26 08:51:03;;;;;;;11.10;5.90;;;;;;;-145.69;100.00;71589.44;5075200;28;20225;-75
2022/04/26 08:53:30;;;;;;;9.30;4.93;;;;;;;-145.69;100.00;71577.50;5075540;28;20285;-75
2022/04/26 08:56:00;;;;;;;10.23;5.57;;;;;;;-145.69;100.00;71585.47;5075591;28;20203;-74
2022/04/26 08:58:29;;;;;;;7.53;5.17;;;;;;;-145.69;100.00;71557.59;5075512;28;20194;-75
2022/04/26 09:01:10;;;;;;;8.03;4.80;;;;;;;-145.69;100.00;71509.84;5075650;28;20187;-74
2022/04/26 09:03:38;;;;;;;9.73;4.90;;;;;;;-145.69;100.00;71535.72;5075007;28;20555;-74
2022/04/26 09:06:08;;;;;;;7.13;4.97;;;;;;;-145.69;100.00;71476.03;5074795;28;20664;-75
2022/04/26 09:08:36;;;;;;;9.63;4.97;;;;;;;-145.69;100.00;71430.25;5075203;28;20202;-74
2022/04/26 09:11:03;;;;;;;10.40;4.77;;;;;;;-145.69;100.00;71430.25;5074991;28;20231;-74
2022/04/26 09:13:40;;;;;;;9.27;5.30;;;;;;;-145.69;100.00;71436.22;5075376;28;20203;-74
2022/04/26 09:16:17;;;;;;;14.37;6.07;;;;;;;-145.69;100.00;71462.09;5074973;28;20718;-74
2022/04/26 09:18:51;;;;;;;9.67;5.40;;;;;;;-145.69;100.00;71493.94;5075196;28;20234;-74
2022/04/26 09:21:19;;;;;;;9.23;4.83;;;;;;;-145.69;100.00;71533.72;5074695;28;20202;-73
2022/04/26 09:23:46;;;;;;;6.27;4.60;;;;;;;-145.69;100.00;71531.75;5074782;28;20195;-74
2022/04/26 09:26:16;;;;;;;8.37;5.20;;;;;;;-145.69;100.00;71446.16;5074622;28;20600;-74
2022/04/26 09:28:44;;;;;;;9.43;5.07;;;;;;;-145.69;96.40;71342.69;5074138;28;20653;-75
2022/04/26 09:31:18;;;;;;;7.70;4.70;;;;;;;-145.69;95.59;71302.91;5074411;28;20226;-76
2022/04/26 09:33:48;;;;;;;7.27;4.27;;;;;;;-145.69;94.55;71364.59;5074473;28;20278;-74
2022/04/26 09:36:15;;;;;;;8.00;4.83;;;;;;;-145.69;99.05;71442.19;5055148;28;20196;-75
2022/04/26 09:38:50;;;;;;;9.33;5.00;;;;;;;-145.69;97.30;71436.22;5068854;28;20195;-74
2022/04/26 09:41:16;;;;;;;9.70;5.50;;;;;;;-145.69;100.00;71509.84;5074162;28;20442;-74
2022/04/26 09:43:43;;;;;;;9.67;5.17;;;;;;;-145.69;100.00;71547.66;5074768;28;20195;-73
2022/04/26 09:46:10;;;;;;;10.10;4.63;;;;;;;-145.69;100.00;71573.53;5073414;28;20234;-74
2022/04/26 09:48:38;;;;;;;11.33;6.17;;;;;;;-145.69;100.00;71541.69;5074638;28;20194;-74
2022/04/26 09:51:06;;;;;;;8.90;4.53;;;;;;;-145.69;100.00;71529.75;5073907;28;20461;-75
2022/04/26 09:53:32;;;;;;;10.67;4.73;;;;;;;-145.69;100.00;71573.53;5074077;28;20666;-74
2022/04/26 09:56:01;;;;;;;7.77;4.57;;;;;;;-145.69;99.46;71537.72;5074264;28;20599;-75
2022/04/26 09:58:29;;;;;;;9.63;4.00;;;;;;;-145.69;87.85;71517.81;5074146;28;20661;-76
2022/04/26 10:00:58;;;;;;;9.57;4.20;;;;;;;-145.69;93.75;71483.97;5073862;28;20199;-75
2022/04/26 10:03:28;;;;;;;6.67;4.07;;;;;;;-145.69;99.61;71521.78;5074264;28;20207;-76
2022/04/26 10:06:00;;;;;;;6.67;3.73;;;;;;;-145.69;93.69;71505.88;5073316;28;20256;-76
2022/04/26 10:08:29;;;;;;;13.43;4.10;;;;;;;-145.69;87.78;71497.91;5074151;28;20199;-75
2022/04/26 10:10:56;;;;;;;7.73;4.00;;;;;;;-145.69;85.10;71497.91;5073905;28;20233;-75
2022/04/26 10:13:35;;;;;;;10.80;5.10;;;;;;;-145.69;84.77;71483.97;5074143;28;20194;-75
2022/04/26 10:16:06;;;;;;;8.13;3.47;;;;;;;-145.69;81.61;71420.31;5073650;28;20190;-76
2022/04/26 10:18:35;;;;;;;7.83;3.20;;;;;;;-145.69;82.80;71392.44;5073613;28;20706;-76
2022/04/26 10:21:04;;;;;;;8.00;3.23;;;;;;;-145.69;72.32;71414.34;5062940;28;20198;-76
2022/04/26 10:24:08;;;;;;;9.17;3.50;;;;;;;-145.69;83.11;71382.50;5065945;28;20218;-75
2022/04/26 10:26:38;;;;;;;6.23;3.70;;;;;;;-145.69;88.77;71286.97;5073524;28;20199;-76
2022/04/26 10:29:15;;;;;;;7.33;3.30;;;;;;;-145.69;77.64;71406.38;5073159;28;20203;-76
2022/04/26 10:31:50;;;;;;;9.77;3.33;;;;;;;-145.69;80.03;71466.06;5073762;28;20225;-76
2022/04/26 10:34:26;;;;;;;6.93;3.15;;;;;;;-145.69;74.55;71418.31;5072901;28;20449;-76
2022/04/26 10:36:56;;;;;;;7.63;3.23;;;;;;;-145.69;83.09;71470.06;5070876;28;20195;-75
2022/04/26 10:39:30;;;;;;;5.13;2.87;;;;;;;-145.69;79.75;71414.34;5065465;28;20200;-75
2022/04/26 10:42:00;;;;;;;7.43;2.80;;;;;;;-145.69;78.36;71398.41;5060971;28;20187;-80
2022/04/26 10:44:33;;;;;;;5.17;2.90;;;;;;;-145.69;76.44;71386.47;5073027;28;20728;-77
2022/04/26 10:47:36;;;;;;;8.13;2.97;;;;;;;-145.69;77.90;71410.34;5061799;28;20196;-76
2022/04/26 10:50:05;;;;;;;7.43;3.17;;;;;;;-145.69;76.23;71418.31;5060687;28;20210;-75
2022/04/26 10:52:49;;;;;;;6.20;3.13;;;;;;;-145.69;80.14;71422.28;5073078;28;20277;-75
2022/04/26 10:55:20;;;;;;;4.40;2.87;;;;;;;-145.69;78.95;71476.03;5073306;28;20195;-75
2022/04/26 10:57:55;;;;;;;7.60;3.40;;;;;;;-145.69;83.33;71537.72;5073415;28;20245;-75
2022/04/26 11:00:34;;;;;;;6.87;3.20;;;;;;;-145.69;85.71;71565.56;5072755;28;20560;-76
2022/04/26 11:03:07;;;;;;;9.60;3.57;;;;;;;-145.69;88.15;71591.44;5073037;28;20190;-75
2022/04/26 11:05:34;;;;;;;7.80;3.50;;;;;;;-145.69;84.24;71593.44;5071416;28;20191;-76
2022/04/26 11:08:03;;;;;;;3.97;3.13;;;;;;;-145.69;82.94;71605.38;5072388;28;20195;-76
2022/04/26 11:11:00;;;;;;;6.10;2.93;;;;;;;-145.69;86.35;71631.25;5072231;28;20218;-77
2022/04/26 11:13:22;;;;;;;8.60;3.37;;;;;;;-145.69;87.23;71653.13;5072516;28;20549;-78
2022/04/26 11:15:49;;;;;;;5.68;3.45;;;;;;;-145.69;90.98;71714.81;5073167;28;20465;-81
2022/04/26 11:18:22;;;;;;;4.93;2.87;;;;;;;-145.69;92.19;71752.63;5072568;28;20222;-78
2022/04/26 11:20:48;;;;;;;5.00;2.20;;;;;;;-145.69;91.40;71786.47;5073156;28;20233;-76
2022/04/26 11:28:54;;;;;;;2.13;1.83;;;;;;;-145.69;89.65;71808.34;5067487;28;20205;-75
2022/04/26 11:31:22;;;;;;;3.00;1.80;;;;;;;-145.69;89.62;71812.31;5072602;28;20226;-75
2022/04/26 11:33:49;;;;;;;1.87;1.43;;;;;;;-145.69;89.68;71854.13;5072948;28;20290;-75
2022/04/26 11:36:17;;;;;;;4.97;1.47;;;;;;;-145.69;95.75;71880.00;5072528;28;20226;-75
2022/04/26 11:38:56;;;;;;;3.00;1.40;;;;;;;-145.69;96.00;71895.91;5072600;28;20203;-75
2022/04/26 11:41:23;;;;;;;1.80;1.30;;;;;;;-145.69;96.70;71961.59;5072552;28;20205;-75
2022/04/26 11:43:49;;;;;;;2.33;1.60;;;;;;;-145.69;100.00;71999.41;5072546;28;20195;-75
2022/04/26 11:46:15;;;;;;;4.47;2.47;;;;;;;-145.69;100.00;71991.44;5072555;28;20657;-75
2022/04/26 11:48:48;;;;;;;2.37;1.93;;;;;;;-145.69;100.00;71983.47;5072739;28;20195;-75
2022/04/26 11:51:15;;;;;;;3.13;2.03;;;;;;;-145.69;100.00;71987.47;5071838;28;20225;-75
2022/04/26 11:53:41;;;;;;;3.87;2.60;;;;;;;-145.69;100.00;72029.25;5072659;28;20206;-76
2022/04/26 11:56:08;;;;;;;4.45;2.83;;;;;;;-145.69;100.00;72067.06;5072415;28;20496;-75
2022/04/26 11:58:36;;;;;;;4.63;2.83;;;;;;;-145.69;100.00;72082.97;5072029;28;20198;-75
2022/04/26 12:01:04;;;;;;;4.30;2.93;;;;;;;-145.69;100.00;72136.72;5072366;28;20202;-75
2022/04/26 12:03:32;;;;;;;13.13;3.10;;;;;;;-145.69;100.00;72174.53;5072290;28;20191;-75
2022/04/26 12:06:02;;;;;;;5.17;3.20;;;;;;;-145.69;100.00;72166.56;5072319;28;20197;-75
2022/04/26 12:08:30;;;;;;;4.90;2.53;;;;;;;-145.69;100.00;72174.53;5072073;28;20195;-75
2022/04/26 12:11:13;;;;;;;3.77;2.83;;;;;;;-145.69;100.00;72222.31;5072120;28;20299;-75
2022/04/26 12:13:40;;;;;;;5.60;3.20;;;;;;;-145.69;100.00;72230.25;5072515;28;20259;-74
2022/04/26 12:16:17;;;;;;;7.00;3.40;;;;;;;-145.69;100.00;72210.38;5071811;28;20202;-75
2022/04/26 12:18:52;;;;;;;6.03;3.37;;;;;;;-145.69;100.00;72166.56;5072134;28;20732;-75
2022/04/26 12:21:21;;;;;;;5.47;3.83;;;;;;;-145.69;100.00;72077.00;5072208;28;20197;-75
2022/04/26 12:23:48;;;;;;;5.70;3.20;;;;;;;-145.69;100.00;72023.28;5072376;28;20202;-74
2022/04/26 12:26:15;;;;;;;6.07;2.67;;;;;;;-145.69;100.00;71933.72;5066355;28;20203;-74
2022/04/26 12:28:50;;;;;;;5.77;2.93;;;;;;;-145.69;100.00;71848.16;5066406;28;20680;-75
2022/04/26 12:31:21;;;;;;;4.83;2.67;;;;;;;-145.69;100.00;71870.03;5072396;28;20585;-74
2022/04/26 12:33:52;;;;;;;4.53;3.10;;;;;;;-145.69;100.00;71796.41;5071083;28;20649;-74
2022/04/26 12:36:20;;;;;;;5.10;2.53;;;;;;;-145.69;99.05;71766.56;5072415;28;20590;-74
2022/04/26 12:38:47;;;;;;;3.97;2.73;;;;;;;-145.69;100.00;71788.44;5071795;28;20688;-74
2022/04/26 12:41:14;;;;;;;6.27;3.20;;;;;;;-145.69;100.00;71716.81;5072190;28;20202;-75
2022/04/26 12:43:41;;;;;;;5.27;3.20;;;;;;;-145.69;100.00;71657.09;5072116;28;20187;-76
2022/04/26 12:46:07;;;;;;;5.80;2.93;;;;;;;-145.69;98.30;71651.13;5071790;28;20650;-75
2022/04/26 12:51:22;;;;;;;5.73;2.80;;;;;;;-145.69;100.00;71529.75;5071938;28;20229;-75
2022/04/26 12:53:50;;;;;;;5.73;2.90;;;;;;;-145.69;84.21;71541.69;5072089;28;20229;-75
2022/04/26 12:56:17;;;;;;;10.23;3.07;;;;;;;-145.69;90.47;71511.84;5071761;28;20195;-75
2022/04/26 12:58:46;;;;;;;11.53;3.63;;;;;;;-145.69;83.71;71571.53;5071488;28;20637;-76
2022/04/26 13:01:13;;;;;;;6.40;2.90;;;;;;;-145.69;86.71;71605.38;5072043;28;20202;-75
2022/04/26 13:03:41;;;;;;;7.03;2.93;;;;;;;-145.69;90.15;71601.38;5075024;28;20673;-75
2022/04/26 13:06:12;;;;;;;6.53;2.70;;;;;;;-145.69;89.07;71561.59;5074443;28;20210;-76
2022/04/26 13:08:41;;;;;;;3.60;2.60;;;;;;;-145.69;88.46;71563.56;5075600;28;20657;-74
2022/04/26 13:11:08;;;;;;;3.43;2.00;;;;;;;-145.69;85.77;71543.69;5075458;28;20230;-75
2022/04/26 13:13:39;;;;;;;4.13;2.60;;;;;;;-145.69;87.90;71617.31;5075328;28;20191;-75
2022/04/26 13:16:06;;;;;;;4.27;2.73;;;;;;;-145.69;91.40;71692.94;5075595;28;20206;-73
2022/04/26 13:18:32;;;;;;;4.77;2.97;;;;;;;-145.69;92.11;71742.69;5075280;28;20230;-74
2022/04/26 13:20:59;;;;;;;7.53;2.60;;;;;;;-145.69;96.26;71764.56;5075147;28;20198;-74
2022/04/26 13:23:29;;;;;;;6.60;3.40;;;;;;;-145.69;94.72;71692.94;5075185;28;20679;-74
2022/04/26 13:25:57;;;;;;;4.67;2.47;;;;;;;-145.69;86.14;71573.53;5074969;28;20202;-74
2022/04/26 13:28:24;;;;;;;5.43;2.87;;;;;;;-145.69;87.90;71541.69;5075035;28;20252;-74
2022/04/26 13:30:50;;;;;;;6.20;3.43;;;;;;;-145.69;77.79;71561.59;5074996;28;20210;-74
2022/04/26 13:33:17;;;;;;;5.37;3.23;;;;;;;-145.69;83.31;71617.31;5075073;28;20675;-75
2022/04/26 13:35:43;;;;;;;6.13;4.03;;;;;;;-145.69;82.50;71659.09;5075145;28;20203;-74
2022/04/26 13:38:11;;;;;;;6.07;3.97;;;;;;;-145.69;84.60;71675.00;5074983;28;20203;-74
2022/04/26 13:40:38;;;;;;;5.97;3.70;;;;;;;-145.69;83.77;71673.03;5074904;28;20198;-74
2022/04/26 13:43:07;;;;;;;6.57;3.97;;;;;;;-145.69;87.53;71714.81;5075043;28;20210;-74
2022/04/26 13:45:34;;;;;;;4.83;3.50;;;;;;;-145.69;92.66;71712.81;5074652;28;20687;-74
2022/04/26 13:48:01;;;;;;;6.37;3.67;;;;;;;-145.69;86.06;71792.44;5074859;28;20203;-74
2022/04/26 13:50:29;;;;;;;6.73;4.00;;;;;;;-145.69;90.33;71688.94;5074718;28;20203;-74
2022/04/26 13:52:56;;;;;;;5.50;3.90;;;;;;;-145.69;87.60;71682.97;5074605;28;20225;-74
2022/04/26 13:55:26;;;;;;;6.07;4.40;;;;;;;-145.69;88.55;71567.56;5074484;28;20206;-75
2022/04/26 13:57:53;;;;;;;5.60;3.77;;;;;;;-145.69;85.86;71529.75;5074522;28;20207;-75
2022/04/26 14:00:22;;;;;;;7.13;4.90;;;;;;;-145.69;78.01;71517.81;5073153;28;20460;-75
2022/04/26 14:02:50;;;;;;;7.50;4.70;;;;;;;-145.69;83.00;71485.97;5074601;28;20256;-74
2022/04/26 14:05:20;;;;;;;9.37;4.70;;;;;;;-145.69;76.45;71456.13;5074513;28;20283;-74
2022/04/26 14:07:47;;;;;;;8.80;4.57;;;;;;;-145.69;77.43;71533.72;5074175;28;20301;-75
2022/04/26 14:10:20;;;;;;;12.03;5.60;;;;;;;-145.69;84.95;71573.53;5074595;28;20206;-75
2022/04/26 14:12:48;;;;;;;9.97;5.30;;;;;;;-145.69;80.29;71682.97;5073713;28;20266;-76
2022/04/26 14:23:35;;;;;;;10.03;5.27;;;;;;;-145.69;81.56;71639.19;5074191;28;20205;-75
2022/04/26 14:26:03;;;;;;;9.47;4.90;;;;;;;-145.69;77.05;71478.00;5073998;28;20194;-76
2022/04/26 14:28:29;;;;;;;10.07;5.60;;;;;;;-145.69;71.87;71380.50;5073637;28;20222;-76
2022/04/26 14:30:58;;;;;;;10.80;5.20;;;;;;;-145.69;69.41;71300.91;5073813;28;20202;-75
2022/04/26 14:33:27;;;;;;;8.35;5.03;;;;;;;-145.69;67.98;71115.88;5073693;28;20237;-75
2022/04/26 14:35:54;;;;;;;8.43;4.35;;;;;;;-145.69;58.09;71052.19;5073319;28;20199;-75
2022/04/26 14:38:21;;;;;;;7.10;4.38;;;;;;;-145.69;53.55;70861.19;5073787;28;20260;-76
2022/04/26 14:40:48;;;;;;;6.80;4.05;;;;;;;-145.69;52.67;70835.31;5073650;28;20207;-76
2022/04/26 14:43:14;;;;;;;11.02;4.40;;;;;;;-145.69;50.49;70801.50;5073396;28;20269;-76
2022/04/26 14:45:45;;;;;;;7.10;4.03;;;;;;;-145.69;51.45;70916.91;5073683;28;20772;-76
2022/04/26 14:48:14;;;;;;;5.60;4.00;;;;;;;-145.69;49.71;70920.88;5073895;28;20198;-77
2022/04/26 14:50:42;;;;;;;10.52;4.13;;;;;;;-145.69;63.79;71187.50;5073631;28;20210;-75
2022/04/26 14:53:13;;;;;;;7.18;5.10;;;;;;;-145.69;67.41;71330.75;5073483;28;20233;-75
2022/04/26 14:55:39;;;;;;;7.63;4.80;;;;;;;-145.69;73.79;71442.19;5073372;28;20666;-76
2022/04/26 14:58:09;;;;;;;8.50;4.93;;;;;;;-145.69;79.71;71585.47;5073529;28;20256;-75
2022/04/26 15:00:36;;;;;;;9.48;5.35;;;;;;;-145.69;76.85;71567.56;5073035;28;20190;-75
2022/04/26 15:03:03;;;;;;;8.47;5.53;;;;;;;-145.69;81.94;71557.59;5073108;28;20203;-75
2022/04/26 15:05:30;;;;;;;7.93;4.97;;;;;;;-145.69;76.35;71639.19;5073121;28;20202;-76
2022/04/26 15:10:42;;;;;;;9.83;6.00;;;;;;;-145.69;81.77;71696.91;5072980;28;20772;-74
2022/04/26 15:18:36;;;;;;;10.27;5.83;;;;;;;-145.69;88.10;71728.75;5072872;28;20232;-74
2022/04/26 15:21:06;;;;;;;12.25;6.20;;;;;;;-145.69;89.58;71760.59;5071749;28;20914;-76
2022/04/26 15:23:35;;;;;;;6.80;5.07;;;;;;;-145.69;94.58;71790.44;5072853;28;20248;-76
2022/04/26 15:26:03;;;;;;;8.97;5.70;;;;;;;-145.69;96.74;71828.25;5072053;28;20203;-75